sensor_id;sensor_type;location;lat;lon;timestamp;P1;durP1;ratioP1;P2;durP2;ratioP2
75628;SDS011;64213;46.452;16.994;2023-11-21T00:00:48;26.27;;;11.15;;
75628;SDS011;64213;46.452;16.994;2023-11-21T00:04:10;26.50;;;11.52;;
75628;SDS011;64213;46.452;16.994;2023-11-21T00:07:29;24.77;;;11.82;;
75628;SDS011;64213;46.452;16.994;2023-11-21T00:10:54;24.67;;;11.53;;
75628;SDS011;64213;46.452;16.994;2023-11-21T00:14:14;23.52;;;10.90;;
75628;SDS011;64213;46.452;16.994;2023-11-21T00:17:36;28.90;;;12.65;;
75628;SDS011;64213;46.452;16.994;2023-11-21T00:20:59;23.77;;;10.82;;
75628;SDS011;64213;46.452;16.994;2023-11-21T00:24:21;24.17;;;11.73;;
75628;SDS011;64213;46.452;16.994;2023-11-21T00:27:47;28.17;;;13.03;;
75628;SDS011;64213;46.452;16.994;2023-11-21T00:31:09;30.83;;;14.80;;
75628;SDS011;64213;46.452;16.994;2023-11-21T00:34:30;36.85;;;16.48;;
75628;SDS011;64213;46.452;16.994;2023-11-21T00:37:49;25.73;;;11.82;;
75628;SDS011;64213;46.452;16.994;2023-11-21T00:41:14;28.02;;;14.52;;
75628;SDS011;64213;46.452;16.994;2023-11-21T00:44:41;32.67;;;15.17;;
75628;SDS011;64213;46.452;16.994;2023-11-21T00:48:03;31.52;;;14.75;;
75628;SDS011;64213;46.452;16.994;2023-11-21T00:51:25;29.02;;;14.35;;
75628;SDS011;64213;46.452;16.994;2023-11-21T00:54:49;32.67;;;14.50;;
75628;SDS011;64213;46.452;16.994;2023-11-21T00:58:11;28.35;;;14.20;;
75628;SDS011;64213;46.452;16.994;2023-11-21T01:01:33;26.47;;;12.60;;
75628;SDS011;64213;46.452;16.994;2023-11-21T01:04:51;20.85;;;9.50;;
75628;SDS011;64213;46.452;16.994;2023-11-21T01:08:13;22.62;;;10.52;;
75628;SDS011;64213;46.452;16.994;2023-11-21T01:11:29;18.25;;;7.97;;
75628;SDS011;64213;46.452;16.994;2023-11-21T01:14:32;24.17;;;10.20;;
75628;SDS011;64213;46.452;16.994;2023-11-21T01:17:34;21.10;;;8.63;;
75628;SDS011;64213;46.452;16.994;2023-11-21T01:20:37;26.10;;;12.80;;
75628;SDS011;64213;46.452;16.994;2023-11-21T01:23:40;31.08;;;13.15;;
75628;SDS011;64213;46.452;16.994;2023-11-21T01:26:43;26.67;;;13.40;;
75628;SDS011;64213;46.452;16.994;2023-11-21T01:29:47;26.25;;;12.45;;
75628;SDS011;64213;46.452;16.994;2023-11-21T01:32:49;23.43;;;10.93;;
75628;SDS011;64213;46.452;16.994;2023-11-21T01:35:52;26.05;;;11.30;;
75628;SDS011;64213;46.452;16.994;2023-11-21T01:38:57;20.77;;;10.32;;
75628;SDS011;64213;46.452;16.994;2023-11-21T01:42:01;23.35;;;10.63;;
75628;SDS011;64213;46.452;16.994;2023-11-21T01:45:03;19.20;;;9.07;;
75628;SDS011;64213;46.452;16.994;2023-11-21T01:48:07;21.20;;;9.80;;
75628;SDS011;64213;46.452;16.994;2023-11-21T01:51:10;18.30;;;8.15;;
75628;SDS011;64213;46.452;16.994;2023-11-21T01:54:13;21.15;;;9.43;;
75628;SDS011;64213;46.452;16.994;2023-11-21T01:57:19;22.00;;;10.13;;
75628;SDS011;64213;46.452;16.994;2023-11-21T02:00:22;20.73;;;9.38;;
75628;SDS011;64213;46.452;16.994;2023-11-21T02:03:25;24.87;;;10.47;;
75628;SDS011;64213;46.452;16.994;2023-11-21T02:06:28;20.00;;;9.40;;
75628;SDS011;64213;46.452;16.994;2023-11-21T02:09:33;27.70;;;14.20;;
75628;SDS011;64213;46.452;16.994;2023-11-21T02:12:36;32.97;;;16.75;;
75628;SDS011;64213;46.452;16.994;2023-11-21T02:15:40;34.65;;;16.33;;
75628;SDS011;64213;46.452;16.994;2023-11-21T02:18:43;35.13;;;17.80;;
75628;SDS011;64213;46.452;16.994;2023-11-21T02:21:46;36.42;;;17.83;;
75628;SDS011;64213;46.452;16.994;2023-11-21T02:24:50;30.67;;;15.93;;
75628;SDS011;64213;46.452;16.994;2023-11-21T02:27:53;31.42;;;15.43;;
75628;SDS011;64213;46.452;16.994;2023-11-21T02:30:57;31.60;;;15.57;;
75628;SDS011;64213;46.452;16.994;2023-11-21T02:34:01;31.83;;;14.80;;
75628;SDS011;64213;46.452;16.994;2023-11-21T02:37:05;32.80;;;17.15;;
75628;SDS011;64213;46.452;16.994;2023-11-21T02:40:09;35.33;;;17.10;;
75628;SDS011;64213;46.452;16.994;2023-11-21T02:43:11;33.80;;;15.40;;
75628;SDS011;64213;46.452;16.994;2023-11-21T02:46:14;35.35;;;17.25;;
75628;SDS011;64213;46.452;16.994;2023-11-21T02:49:17;35.00;;;17.07;;
75628;SDS011;64213;46.452;16.994;2023-11-21T02:52:19;30.90;;;15.63;;
75628;SDS011;64213;46.452;16.994;2023-11-21T02:55:22;31.30;;;16.73;;
75628;SDS011;64213;46.452;16.994;2023-11-21T02:58:27;37.95;;;16.95;;
75628;SDS011;64213;46.452;16.994;2023-11-21T03:01:29;34.55;;;16.83;;
75628;SDS011;64213;46.452;16.994;2023-11-21T03:04:32;33.63;;;15.97;;
75628;SDS011;64213;46.452;16.994;2023-11-21T03:07:36;33.47;;;14.77;;
75628;SDS011;64213;46.452;16.994;2023-11-21T03:10:39;33.05;;;15.43;;
75628;SDS011;64213;46.452;16.994;2023-11-21T03:13:42;29.92;;;15.13;;
75628;SDS011;64213;46.452;16.994;2023-11-21T03:16:44;33.92;;;16.42;;
75628;SDS011;64213;46.452;16.994;2023-11-21T03:19:47;29.57;;;14.67;;
75628;SDS011;64213;46.452;16.994;2023-11-21T03:22:50;29.98;;;15.43;;
75628;SDS011;64213;46.452;16.994;2023-11-21T03:25:53;30.90;;;14.60;;
75628;SDS011;64213;46.452;16.994;2023-11-21T03:28:55;33.75;;;15.75;;
75628;SDS011;64213;46.452;16.994;2023-11-21T03:31:58;35.03;;;16.00;;
75628;SDS011;64213;46.452;16.994;2023-11-21T03:35:00;36.17;;;15.53;;
75628;SDS011;64213;46.452;16.994;2023-11-21T03:38:04;28.65;;;13.82;;
75628;SDS011;64213;46.452;16.994;2023-11-21T03:41:07;33.58;;;16.60;;
75628;SDS011;64213;46.452;16.994;2023-11-21T03:44:12;34.75;;;15.88;;
75628;SDS011;64213;46.452;16.994;2023-11-21T03:47:15;27.77;;;12.60;;
75628;SDS011;64213;46.452;16.994;2023-11-21T03:50:17;31.30;;;14.63;;
75628;SDS011;64213;46.452;16.994;2023-11-21T03:53:20;26.80;;;13.10;;
75628;SDS011;64213;46.452;16.994;2023-11-21T03:56:22;28.65;;;13.93;;
75628;SDS011;64213;46.452;16.994;2023-11-21T03:59:25;27.42;;;13.02;;
75628;SDS011;64213;46.452;16.994;2023-11-21T04:02:28;34.10;;;15.50;;
75628;SDS011;64213;46.452;16.994;2023-11-21T04:05:31;28.87;;;13.17;;
75628;SDS011;64213;46.452;16.994;2023-11-21T04:08:34;31.05;;;14.98;;
75628;SDS011;64213;46.452;16.994;2023-11-21T04:11:37;22.00;;;8.95;;
75628;SDS011;64213;46.452;16.994;2023-11-21T04:14:39;28.80;;;13.75;;
75628;SDS011;64213;46.452;16.994;2023-11-21T04:17:42;29.23;;;14.30;;
75628;SDS011;64213;46.452;16.994;2023-11-21T04:20:44;30.73;;;14.20;;
75628;SDS011;64213;46.452;16.994;2023-11-21T04:23:46;29.45;;;13.38;;
75628;SDS011;64213;46.452;16.994;2023-11-21T04:26:49;31.50;;;16.02;;
75628;SDS011;64213;46.452;16.994;2023-11-21T04:29:51;18.60;;;9.10;;
75628;SDS011;64213;46.452;16.994;2023-11-21T04:32:54;34.33;;;16.00;;
75628;SDS011;64213;46.452;16.994;2023-11-21T04:35:56;31.87;;;15.47;;
75628;SDS011;64213;46.452;16.994;2023-11-21T04:38:59;30.12;;;14.87;;
75628;SDS011;64213;46.452;16.994;2023-11-21T04:42:01;28.17;;;13.25;;
75628;SDS011;64213;46.452;16.994;2023-11-21T04:45:04;25.10;;;11.52;;
75628;SDS011;64213;46.452;16.994;2023-11-21T04:48:11;17.45;;;8.10;;
75628;SDS011;64213;46.452;16.994;2023-11-21T04:51:14;21.20;;;8.83;;
75628;SDS011;64213;46.452;16.994;2023-11-21T04:54:17;18.95;;;8.20;;
75628;SDS011;64213;46.452;16.994;2023-11-21T04:57:20;21.40;;;9.25;;
75628;SDS011;64213;46.452;16.994;2023-11-21T05:00:23;16.27;;;6.18;;
75628;SDS011;64213;46.452;16.994;2023-11-21T05:03:26;16.80;;;7.78;;
75628;SDS011;64213;46.452;16.994;2023-11-21T05:06:28;10.40;;;3.57;;
75628;SDS011;64213;46.452;16.994;2023-11-21T05:09:31;18.05;;;7.57;;
75628;SDS011;64213;46.452;16.994;2023-11-21T05:12:34;20.48;;;8.30;;
75628;SDS011;64213;46.452;16.994;2023-11-21T05:15:39;19.85;;;8.00;;
75628;SDS011;64213;46.452;16.994;2023-11-21T05:18:43;20.17;;;8.80;;
75628;SDS011;64213;46.452;16.994;2023-11-21T05:21:45;18.47;;;7.93;;
75628;SDS011;64213;46.452;16.994;2023-11-21T05:24:48;15.13;;;6.97;;
75628;SDS011;64213;46.452;16.994;2023-11-21T05:27:50;18.67;;;7.55;;
75628;SDS011;64213;46.452;16.994;2023-11-21T05:30:52;18.62;;;8.43;;
75628;SDS011;64213;46.452;16.994;2023-11-21T05:34:15;16.00;;;7.78;;
75628;SDS011;64213;46.452;16.994;2023-11-21T05:37:19;15.53;;;6.50;;
75628;SDS011;64213;46.452;16.994;2023-11-21T05:40:22;13.90;;;5.78;;
75628;SDS011;64213;46.452;16.994;2023-11-21T05:43:24;13.18;;;4.70;;
75628;SDS011;64213;46.452;16.994;2023-11-21T05:46:27;12.23;;;4.55;;
75628;SDS011;64213;46.452;16.994;2023-11-21T05:49:30;13.80;;;4.47;;
75628;SDS011;64213;46.452;16.994;2023-11-21T05:52:32;9.63;;;3.23;;
75628;SDS011;64213;46.452;16.994;2023-11-21T05:55:35;9.40;;;2.78;;
75628;SDS011;64213;46.452;16.994;2023-11-21T05:58:37;9.18;;;3.20;;
75628;SDS011;64213;46.452;16.994;2023-11-21T06:01:40;9.52;;;3.17;;
75628;SDS011;64213;46.452;16.994;2023-11-21T06:04:42;10.00;;;2.67;;
75628;SDS011;64213;46.452;16.994;2023-11-21T06:07:45;9.17;;;2.47;;
75628;SDS011;64213;46.452;16.994;2023-11-21T06:10:48;10.70;;;3.03;;
75628;SDS011;64213;46.452;16.994;2023-11-21T06:13:51;11.32;;;2.92;;
75628;SDS011;64213;46.452;16.994;2023-11-21T06:16:55;8.63;;;2.65;;
75628;SDS011;64213;46.452;16.994;2023-11-21T06:19:58;10.80;;;2.85;;
75628;SDS011;64213;46.452;16.994;2023-11-21T06:23:01;12.07;;;2.87;;
75628;SDS011;64213;46.452;16.994;2023-11-21T06:26:06;9.55;;;2.60;;
75628;SDS011;64213;46.452;16.994;2023-11-21T06:29:08;10.98;;;2.58;;
75628;SDS011;64213;46.452;16.994;2023-11-21T06:32:10;10.25;;;2.58;;
75628;SDS011;64213;46.452;16.994;2023-11-21T06:35:14;8.90;;;2.62;;
75628;SDS011;64213;46.452;16.994;2023-11-21T06:38:19;10.43;;;2.90;;
75628;SDS011;64213;46.452;16.994;2023-11-21T06:41:23;7.68;;;2.58;;
75628;SDS011;64213;46.452;16.994;2023-11-21T06:44:26;10.85;;;2.62;;
75628;SDS011;64213;46.452;16.994;2023-11-21T06:47:30;8.90;;;2.85;;
75628;SDS011;64213;46.452;16.994;2023-11-21T06:50:32;7.15;;;2.15;;
75628;SDS011;64213;46.452;16.994;2023-11-21T06:53:36;10.17;;;3.03;;
75628;SDS011;64213;46.452;16.994;2023-11-21T06:56:40;9.10;;;2.83;;
75628;SDS011;64213;46.452;16.994;2023-11-21T06:59:43;13.30;;;3.67;;
75628;SDS011;64213;46.452;16.994;2023-11-21T07:02:46;9.35;;;3.00;;
75628;SDS011;64213;46.452;16.994;2023-11-21T07:05:50;10.07;;;4.03;;
75628;SDS011;64213;46.452;16.994;2023-11-21T07:08:52;12.77;;;4.23;;
75628;SDS011;64213;46.452;16.994;2023-11-21T07:11:55;9.30;;;3.12;;
75628;SDS011;64213;46.452;16.994;2023-11-21T07:14:57;9.73;;;3.60;;
75628;SDS011;64213;46.452;16.994;2023-11-21T07:18:01;11.18;;;3.80;;
75628;SDS011;64213;46.452;16.994;2023-11-21T07:21:03;10.52;;;3.55;;
75628;SDS011;64213;46.452;16.994;2023-11-21T07:24:06;10.50;;;3.23;;
75628;SDS011;64213;46.452;16.994;2023-11-21T07:27:10;11.45;;;3.67;;
75628;SDS011;64213;46.452;16.994;2023-11-21T07:30:12;10.48;;;4.15;;
75628;SDS011;64213;46.452;16.994;2023-11-21T07:33:15;12.15;;;4.82;;
75628;SDS011;64213;46.452;16.994;2023-11-21T07:36:18;14.15;;;5.18;;
75628;SDS011;64213;46.452;16.994;2023-11-21T07:39:22;18.30;;;6.90;;
75628;SDS011;64213;46.452;16.994;2023-11-21T07:42:25;19.40;;;6.97;;
75628;SDS011;64213;46.452;16.994;2023-11-21T07:45:28;31.55;;;11.93;;
75628;SDS011;64213;46.452;16.994;2023-11-21T07:48:30;24.48;;;10.45;;
75628;SDS011;64213;46.452;16.994;2023-11-21T07:51:33;19.58;;;7.07;;
75628;SDS011;64213;46.452;16.994;2023-11-21T07:54:36;18.47;;;7.67;;
75628;SDS011;64213;46.452;16.994;2023-11-21T07:57:38;14.00;;;5.72;;
75628;SDS011;64213;46.452;16.994;2023-11-21T08:00:40;8.15;;;2.80;;
75628;SDS011;64213;46.452;16.994;2023-11-21T08:03:43;11.45;;;2.92;;
75628;SDS011;64213;46.452;16.994;2023-11-21T08:06:46;9.23;;;2.83;;
75628;SDS011;64213;46.452;16.994;2023-11-21T08:09:48;9.47;;;3.00;;
75628;SDS011;64213;46.452;16.994;2023-11-21T08:12:51;9.35;;;3.08;;
75628;SDS011;64213;46.452;16.994;2023-11-21T08:15:56;7.65;;;2.33;;
75628;SDS011;64213;46.452;16.994;2023-11-21T08:19:03;7.78;;;2.58;;
75628;SDS011;64213;46.452;16.994;2023-11-21T08:22:05;11.15;;;3.17;;
75628;SDS011;64213;46.452;16.994;2023-11-21T08:25:10;12.10;;;2.30;;
75628;SDS011;64213;46.452;16.994;2023-11-21T08:28:12;7.72;;;2.30;;
75628;SDS011;64213;46.452;16.994;2023-11-21T08:31:23;7.47;;;1.73;;
75628;SDS011;64213;46.452;16.994;2023-11-21T08:34:26;6.07;;;1.58;;
75628;SDS011;64213;46.452;16.994;2023-11-21T08:37:30;8.15;;;1.90;;
75628;SDS011;64213;46.452;16.994;2023-11-21T08:40:35;7.50;;;1.60;;
75628;SDS011;64213;46.452;16.994;2023-11-21T08:43:37;8.15;;;1.60;;
75628;SDS011;64213;46.452;16.994;2023-11-21T08:46:42;6.85;;;1.60;;
75628;SDS011;64213;46.452;16.994;2023-11-21T08:49:46;10.48;;;1.70;;
75628;SDS011;64213;46.452;16.994;2023-11-21T08:52:49;8.90;;;1.92;;
75628;SDS011;64213;46.452;16.994;2023-11-21T08:55:53;6.03;;;1.30;;
75628;SDS011;64213;46.452;16.994;2023-11-21T08:58:56;7.85;;;1.62;;
75628;SDS011;64213;46.452;16.994;2023-11-21T09:01:59;7.82;;;1.27;;
75628;SDS011;64213;46.452;16.994;2023-11-21T09:05:01;5.12;;;1.05;;
75628;SDS011;64213;46.452;16.994;2023-11-21T09:08:05;6.82;;;1.60;;
75628;SDS011;64213;46.452;16.994;2023-11-21T09:11:09;7.97;;;1.80;;
75628;SDS011;64213;46.452;16.994;2023-11-21T09:14:11;5.32;;;1.15;;
75628;SDS011;64213;46.452;16.994;2023-11-21T09:17:17;6.40;;;1.37;;
75628;SDS011;64213;46.452;16.994;2023-11-21T09:20:20;6.30;;;1.15;;
75628;SDS011;64213;46.452;16.994;2023-11-21T09:23:24;6.40;;;1.45;;
75628;SDS011;64213;46.452;16.994;2023-11-21T09:26:27;7.60;;;1.43;;
75628;SDS011;64213;46.452;16.994;2023-11-21T09:29:29;9.25;;;1.75;;
75628;SDS011;64213;46.452;16.994;2023-11-21T09:32:32;8.30;;;1.55;;
75628;SDS011;64213;46.452;16.994;2023-11-21T09:35:35;7.00;;;1.90;;
75628;SDS011;64213;46.452;16.994;2023-11-21T09:38:37;8.95;;;2.40;;
75628;SDS011;64213;46.452;16.994;2023-11-21T09:41:46;11.67;;;3.10;;
75628;SDS011;64213;46.452;16.994;2023-11-21T09:45:00;14.90;;;5.15;;
75628;SDS011;64213;46.452;16.994;2023-11-21T09:48:09;17.92;;;6.60;;
75628;SDS011;64213;46.452;16.994;2023-11-21T09:51:13;12.27;;;4.57;;
75628;SDS011;64213;46.452;16.994;2023-11-21T09:54:17;11.10;;;3.67;;
75628;SDS011;64213;46.452;16.994;2023-11-21T09:57:21;11.23;;;2.90;;
75628;SDS011;64213;46.452;16.994;2023-11-21T10:00:25;7.18;;;1.85;;
75628;SDS011;64213;46.452;16.994;2023-11-21T10:03:29;8.20;;;1.90;;
75628;SDS011;64213;46.452;16.994;2023-11-21T10:06:32;6.70;;;2.00;;
75628;SDS011;64213;46.452;16.994;2023-11-21T10:09:36;7.82;;;1.65;;
75628;SDS011;64213;46.452;16.994;2023-11-21T10:12:39;10.13;;;1.60;;
75628;SDS011;64213;46.452;16.994;2023-11-21T10:15:49;8.13;;;1.40;;
75628;SDS011;64213;46.452;16.994;2023-11-21T10:18:55;6.15;;;1.10;;
75628;SDS011;64213;46.452;16.994;2023-11-21T10:22:12;6.93;;;1.20;;
75628;SDS011;64213;46.452;16.994;2023-11-21T10:25:17;5.90;;;1.20;;
75628;SDS011;64213;46.452;16.994;2023-11-21T10:28:22;9.80;;;2.50;;
75628;SDS011;64213;46.452;16.994;2023-11-21T10:31:27;9.80;;;2.60;;
75628;SDS011;64213;46.452;16.994;2023-11-21T10:34:32;7.85;;;1.95;;
75628;SDS011;64213;46.452;16.994;2023-11-21T10:37:36;7.15;;;1.60;;
75628;SDS011;64213;46.452;16.994;2023-11-21T10:40:43;7.57;;;1.67;;
75628;SDS011;64213;46.452;16.994;2023-11-21T10:43:47;6.90;;;1.60;;
75628;SDS011;64213;46.452;16.994;2023-11-21T10:46:50;9.00;;;1.70;;
75628;SDS011;64213;46.452;16.994;2023-11-21T10:49:54;7.25;;;1.75;;
75628;SDS011;64213;46.452;16.994;2023-11-21T10:52:57;8.05;;;2.25;;
75628;SDS011;64213;46.452;16.994;2023-11-21T10:56:01;8.13;;;2.10;;
75628;SDS011;64213;46.452;16.994;2023-11-21T10:59:07;10.80;;;2.17;;
75628;SDS011;64213;46.452;16.994;2023-11-21T11:02:23;11.07;;;3.30;;
75628;SDS011;64213;46.452;16.994;2023-11-21T11:05:30;9.65;;;2.58;;
75628;SDS011;64213;46.452;16.994;2023-11-21T11:08:38;9.63;;;1.77;;
75628;SDS011;64213;46.452;16.994;2023-11-21T11:11:41;9.25;;;2.30;;
75628;SDS011;64213;46.452;16.994;2023-11-21T11:14:45;7.50;;;1.93;;
75628;SDS011;64213;46.452;16.994;2023-11-21T11:17:50;7.62;;;1.90;;
75628;SDS011;64213;46.452;16.994;2023-11-21T11:20:52;9.57;;;2.28;;
75628;SDS011;64213;46.452;16.994;2023-11-21T11:24:04;8.90;;;1.80;;
75628;SDS011;64213;46.452;16.994;2023-11-21T11:27:28;8.75;;;2.05;;
75628;SDS011;64213;46.452;16.994;2023-11-21T11:33:46;8.07;;;1.48;;
75628;SDS011;64213;46.452;16.994;2023-11-21T11:36:57;7.60;;;1.80;;
75628;SDS011;64213;46.452;16.994;2023-11-21T11:40:05;7.55;;;1.80;;
75628;SDS011;64213;46.452;16.994;2023-11-21T11:43:08;7.62;;;1.33;;
75628;SDS011;64213;46.452;16.994;2023-11-21T11:46:11;6.13;;;1.43;;
75628;SDS011;64213;46.452;16.994;2023-11-21T11:49:23;13.07;;;2.47;;
75628;SDS011;64213;46.452;16.994;2023-11-21T11:52:36;7.95;;;2.40;;
75628;SDS011;64213;46.452;16.994;2023-11-21T11:55:42;6.50;;;1.70;;
75628;SDS011;64213;46.452;16.994;2023-11-21T11:58:46;8.45;;;1.87;;
75628;SDS011;64213;46.452;16.994;2023-11-21T12:01:49;7.87;;;1.20;;
75628;SDS011;64213;46.452;16.994;2023-11-21T12:04:55;9.15;;;1.60;;
75628;SDS011;64213;46.452;16.994;2023-11-21T12:08:00;7.12;;;1.95;;
75628;SDS011;64213;46.452;16.994;2023-11-21T12:11:05;6.57;;;1.67;;
75628;SDS011;64213;46.452;16.994;2023-11-21T12:14:08;6.93;;;1.42;;
75628;SDS011;64213;46.452;16.994;2023-11-21T12:17:11;8.13;;;1.33;;
75628;SDS011;64213;46.452;16.994;2023-11-21T12:20:15;7.03;;;1.60;;
75628;SDS011;64213;46.452;16.994;2023-11-21T12:23:20;6.82;;;1.30;;
75628;SDS011;64213;46.452;16.994;2023-11-21T12:26:23;8.27;;;1.10;;
75628;SDS011;64213;46.452;16.994;2023-11-21T12:29:26;6.12;;;1.10;;
75628;SDS011;64213;46.452;16.994;2023-11-21T12:32:31;5.57;;;0.93;;
75628;SDS011;64213;46.452;16.994;2023-11-21T12:35:35;5.55;;;1.30;;
75628;SDS011;64213;46.452;16.994;2023-11-21T12:38:37;6.40;;;1.40;;
75628;SDS011;64213;46.452;16.994;2023-11-21T12:41:40;5.12;;;0.80;;
75628;SDS011;64213;46.452;16.994;2023-11-21T12:44:45;7.47;;;1.27;;
75628;SDS011;64213;46.452;16.994;2023-11-21T12:47:50;8.00;;;1.20;;
75628;SDS011;64213;46.452;16.994;2023-11-21T12:50:53;6.35;;;1.02;;
75628;SDS011;64213;46.452;16.994;2023-11-21T12:53:57;7.18;;;1.30;;
75628;SDS011;64213;46.452;16.994;2023-11-21T12:57:00;7.12;;;1.40;;
75628;SDS011;64213;46.452;16.994;2023-11-21T13:00:04;11.27;;;1.77;;
75628;SDS011;64213;46.452;16.994;2023-11-21T13:03:16;7.20;;;1.30;;
75628;SDS011;64213;46.452;16.994;2023-11-21T13:06:22;8.43;;;1.73;;
75628;SDS011;64213;46.452;16.994;2023-11-21T13:09:27;7.22;;;2.10;;
75628;SDS011;64213;46.452;16.994;2023-11-21T13:12:30;6.32;;;1.62;;
75628;SDS011;64213;46.452;16.994;2023-11-21T13:15:38;6.57;;;1.65;;
75628;SDS011;64213;46.452;16.994;2023-11-21T13:18:42;7.50;;;1.60;;
75628;SDS011;64213;46.452;16.994;2023-11-21T13:21:45;8.43;;;1.80;;
75628;SDS011;64213;46.452;16.994;2023-11-21T13:24:48;8.70;;;1.87;;
75628;SDS011;64213;46.452;16.994;2023-11-21T13:27:51;7.50;;;2.00;;
75628;SDS011;64213;46.452;16.994;2023-11-21T13:30:53;8.13;;;2.20;;
75628;SDS011;64213;46.452;16.994;2023-11-21T13:33:56;10.30;;;2.10;;
75628;SDS011;64213;46.452;16.994;2023-11-21T13:37:01;10.63;;;3.20;;
75628;SDS011;64213;46.452;16.994;2023-11-21T13:40:05;10.88;;;3.25;;
75628;SDS011;64213;46.452;16.994;2023-11-21T13:43:17;11.43;;;3.50;;
75628;SDS011;64213;46.452;16.994;2023-11-21T13:46:20;9.80;;;2.55;;
75628;SDS011;64213;46.452;16.994;2023-11-21T13:49:24;9.03;;;2.50;;
75628;SDS011;64213;46.452;16.994;2023-11-21T13:52:28;9.25;;;2.45;;
75628;SDS011;64213;46.452;16.994;2023-11-21T13:55:35;10.30;;;2.60;;
75628;SDS011;64213;46.452;16.994;2023-11-21T13:58:38;12.73;;;2.85;;
75628;SDS011;64213;46.452;16.994;2023-11-21T14:01:57;10.32;;;2.70;;
75628;SDS011;64213;46.452;16.994;2023-11-21T14:05:18;10.17;;;3.33;;
75628;SDS011;64213;46.452;16.994;2023-11-21T14:08:31;11.73;;;3.92;;
75628;SDS011;64213;46.452;16.994;2023-11-21T14:11:34;13.45;;;4.10;;
75628;SDS011;64213;46.452;16.994;2023-11-21T14:14:49;12.95;;;4.55;;
75628;SDS011;64213;46.452;16.994;2023-11-21T14:17:51;13.85;;;4.72;;
75628;SDS011;64213;46.452;16.994;2023-11-21T14:20:54;11.77;;;4.10;;
75628;SDS011;64213;46.452;16.994;2023-11-21T14:23:56;12.82;;;3.85;;
75628;SDS011;64213;46.452;16.994;2023-11-21T14:26:59;12.10;;;4.28;;
75628;SDS011;64213;46.452;16.994;2023-11-21T14:30:01;13.80;;;4.72;;
75628;SDS011;64213;46.452;16.994;2023-11-21T14:33:04;13.75;;;3.83;;
75628;SDS011;64213;46.452;16.994;2023-11-21T14:36:07;12.97;;;4.77;;
75628;SDS011;64213;46.452;16.994;2023-11-21T14:39:12;14.07;;;4.15;;
75628;SDS011;64213;46.452;16.994;2023-11-21T14:42:26;14.07;;;4.90;;
75628;SDS011;64213;46.452;16.994;2023-11-21T14:45:31;12.70;;;4.57;;
75628;SDS011;64213;46.452;16.994;2023-11-21T14:48:36;12.32;;;4.32;;
75628;SDS011;64213;46.452;16.994;2023-11-21T14:51:45;12.83;;;4.70;;
75628;SDS011;64213;46.452;16.994;2023-11-21T14:55:10;14.43;;;4.55;;
75628;SDS011;64213;46.452;16.994;2023-11-21T14:58:27;12.95;;;4.95;;
75628;SDS011;64213;46.452;16.994;2023-11-21T15:01:31;15.45;;;5.60;;
75628;SDS011;64213;46.452;16.994;2023-11-21T15:04:46;13.80;;;5.50;;
75628;SDS011;64213;46.452;16.994;2023-11-21T15:07:50;14.13;;;5.67;;
75628;SDS011;64213;46.452;16.994;2023-11-21T15:10:57;18.15;;;6.37;;
75628;SDS011;64213;46.452;16.994;2023-11-21T15:14:00;16.92;;;6.50;;
75628;SDS011;64213;46.452;16.994;2023-11-21T15:17:09;12.23;;;4.95;;
75628;SDS011;64213;46.452;16.994;2023-11-21T15:20:11;15.50;;;4.35;;
75628;SDS011;64213;46.452;16.994;2023-11-21T15:23:21;10.10;;;3.83;;
75628;SDS011;64213;46.452;16.994;2023-11-21T15:26:23;10.13;;;3.62;;
75628;SDS011;64213;46.452;16.994;2023-11-21T15:29:29;8.45;;;2.72;;
75628;SDS011;64213;46.452;16.994;2023-11-21T15:32:31;10.10;;;2.90;;
75628;SDS011;64213;46.452;16.994;2023-11-21T15:35:33;10.07;;;3.20;;
75628;SDS011;64213;46.452;16.994;2023-11-21T15:38:39;10.33;;;3.57;;
75628;SDS011;64213;46.452;16.994;2023-11-21T15:41:42;12.77;;;3.85;;
75628;SDS011;64213;46.452;16.994;2023-11-21T15:44:44;8.48;;;2.85;;
75628;SDS011;64213;46.452;16.994;2023-11-21T15:47:47;10.38;;;3.28;;
75628;SDS011;64213;46.452;16.994;2023-11-21T15:50:49;13.80;;;3.17;;
75628;SDS011;64213;46.452;16.994;2023-11-21T15:53:54;12.63;;;3.87;;
75628;SDS011;64213;46.452;16.994;2023-11-21T15:56:56;10.45;;;3.80;;
75628;SDS011;64213;46.452;16.994;2023-11-21T16:00:01;10.73;;;4.35;;
75628;SDS011;64213;46.452;16.994;2023-11-21T16:03:10;11.95;;;4.07;;
75628;SDS011;64213;46.452;16.994;2023-11-21T16:06:14;12.68;;;3.85;;
75628;SDS011;64213;46.452;16.994;2023-11-21T16:09:18;12.17;;;4.50;;
75628;SDS011;64213;46.452;16.994;2023-11-21T16:12:33;12.05;;;4.47;;
75628;SDS011;64213;46.452;16.994;2023-11-21T16:15:36;11.73;;;4.07;;
75628;SDS011;64213;46.452;16.994;2023-11-21T16:18:38;13.73;;;5.22;;
75628;SDS011;64213;46.452;16.994;2023-11-21T16:21:41;23.17;;;7.95;;
75628;SDS011;64213;46.452;16.994;2023-11-21T16:24:43;17.50;;;8.13;;
75628;SDS011;64213;46.452;16.994;2023-11-21T16:27:45;20.20;;;8.43;;
75628;SDS011;64213;46.452;16.994;2023-11-21T16:30:48;18.58;;;8.32;;
75628;SDS011;64213;46.452;16.994;2023-11-21T16:33:52;18.33;;;8.32;;
75628;SDS011;64213;46.452;16.994;2023-11-21T16:36:56;19.85;;;9.00;;
75628;SDS011;64213;46.452;16.994;2023-11-21T16:39:59;23.07;;;8.77;;
75628;SDS011;64213;46.452;16.994;2023-11-21T16:43:09;19.05;;;8.80;;
75628;SDS011;64213;46.452;16.994;2023-11-21T16:46:12;23.55;;;10.50;;
75628;SDS011;64213;46.452;16.994;2023-11-21T16:49:16;20.67;;;10.35;;
75628;SDS011;64213;46.452;16.994;2023-11-21T16:52:20;22.50;;;11.12;;
75628;SDS011;64213;46.452;16.994;2023-11-21T16:55:24;24.97;;;11.93;;
75628;SDS011;64213;46.452;16.994;2023-11-21T16:58:29;23.25;;;10.52;;
75628;SDS011;64213;46.452;16.994;2023-11-21T17:01:34;27.52;;;12.18;;
75628;SDS011;64213;46.452;16.994;2023-11-21T17:04:37;20.95;;;9.60;;
75628;SDS011;64213;46.452;16.994;2023-11-21T17:07:44;26.40;;;13.20;;
75628;SDS011;64213;46.452;16.994;2023-11-21T17:10:49;29.17;;;12.27;;
75628;SDS011;64213;46.452;16.994;2023-11-21T17:13:53;21.95;;;11.12;;
75628;SDS011;64213;46.452;16.994;2023-11-21T17:16:57;23.42;;;11.00;;
75628;SDS011;64213;46.452;16.994;2023-11-21T17:20:03;12.98;;;6.22;;
75628;SDS011;64213;46.452;16.994;2023-11-21T17:23:13;22.48;;;11.32;;
75628;SDS011;64213;46.452;16.994;2023-11-21T17:26:16;22.63;;;11.00;;
75628;SDS011;64213;46.452;16.994;2023-11-21T17:29:19;15.50;;;7.43;;
75628;SDS011;64213;46.452;16.994;2023-11-21T17:32:23;25.60;;;12.73;;
75628;SDS011;64213;46.452;16.994;2023-11-21T17:35:42;23.50;;;11.73;;
75628;SDS011;64213;46.452;16.994;2023-11-21T17:38:47;23.77;;;10.30;;
75628;SDS011;64213;46.452;16.994;2023-11-21T17:41:51;27.50;;;12.23;;
75628;SDS011;64213;46.452;16.994;2023-11-21T17:44:54;26.50;;;11.82;;
75628;SDS011;64213;46.452;16.994;2023-11-21T17:47:58;25.70;;;11.52;;
75628;SDS011;64213;46.452;16.994;2023-11-21T17:51:04;26.08;;;12.77;;
75628;SDS011;64213;46.452;16.994;2023-11-21T17:54:08;26.12;;;10.50;;
75628;SDS011;64213;46.452;16.994;2023-11-21T17:57:21;22.37;;;11.57;;
75628;SDS011;64213;46.452;16.994;2023-11-21T18:00:26;24.60;;;11.23;;
75628;SDS011;64213;46.452;16.994;2023-11-21T18:03:32;24.00;;;11.07;;
75628;SDS011;64213;46.452;16.994;2023-11-21T18:06:36;28.05;;;12.05;;